Time;durP1;ratioP1;P1;durP2;ratioP2;P2;SDS_P1;SDS_P2;PMS_P1;PMS_P2;Temp;Humidity;BMP_temperature;BMP_pressure;BME280_temperature;BME280_humidity;BME280_pressure;Samples;Min_cycle;Max_cycle;Signal;HPM_P1;HPM_P2
2022/08/16 00:01:49;;;;;;;;;;;28.50;93.40;;;;;;5066517;28;19909;-54
2022/08/16 00:04:16;;;;;;;;;;;28.50;93.30;;;;;;5066782;28;20168;-57
2022/08/16 00:06:42;;;;;;;;;;;28.50;93.30;;;;;;5063637;28;19945;-51
2022/08/16 00:09:09;;;;;;;;;;;28.40;93.40;;;;;;5059979;28;20084;-49
2022/08/16 00:11:35;;;;;;;;;;;28.30;93.40;;;;;;5060314;28;19972;-51
2022/08/16 00:14:02;;;;;;;;;;;28.30;93.50;;;;;;5060010;28;19956;-53
2022/08/16 00:16:31;;;;;;;;;;;28.20;93.60;;;;;;5059884;28;20228;-50
2022/08/16 00:19:00;;;;;;;;;;;28.20;93.60;;;;;;5049082;28;19909;-52
2022/08/16 00:21:26;;;;;;;;;;;28.20;93.60;;;;;;5053424;28;19950;-49
2022/08/16 00:23:53;;;;;;;;;;;28.20;93.70;;;;;;5060210;28;19967;-49
2022/08/16 00:26:19;;;;;;;;;;;28.20;93.80;;;;;;5047476;28;19917;-50
2022/08/16 00:28:45;;;;;;;;;;;28.10;93.70;;;;;;5053873;28;19917;-52
2022/08/16 00:31:11;;;;;;;;;;;28.10;93.70;;;;;;5058868;28;19952;-50
2022/08/16 00:33:37;;;;;;;;;;;28.00;93.70;;;;;;5065098;28;20184;-52
2022/08/16 00:36:04;;;;;;;;;;;28.00;93.60;;;;;;5059193;28;19935;-46
2022/08/16 00:38:30;;;;;;;;;;;28.00;93.60;;;;;;5046316;28;19963;-47
2022/08/16 00:40:57;;;;;;;;;;;28.00;93.60;;;;;;5045196;28;20189;-51
2022/08/16 00:43:25;;;;;;;;;;;28.00;93.80;;;;;;5045653;28;19939;-48
2022/08/16 00:46:14;;;;;;;;;;;28.00;93.60;;;;;;5044981;28;19913;-47
2022/08/16 00:48:41;;;;;;;;;;;27.90;93.40;;;;;;5057247;28;19972;-52
2022/08/16 00:51:07;;;;;;;;;;;27.90;93.40;;;;;;5064342;28;19920;-52
2022/08/16 00:53:34;;;;;;;;;;;28.00;93.50;;;;;;5065654;28;20148;-52
2022/08/16 00:56:02;;;;;;;;;;;28.00;93.40;;;;;;5063268;28;19920;-53
2022/08/16 00:58:29;;;;;;;;;;;28.00;93.30;;;;;;5065465;28;20100;-51
2022/08/16 01:00:56;;;;;;;;;;;28.00;93.30;;;;;;5064926;28;20255;-54
2022/08/16 01:03:24;;;;;;;;;;;28.00;93.20;;;;;;5064648;28;19913;-56
2022/08/16 01:05:52;;;;;;;;;;;28.10;93.30;;;;;;5063556;28;19909;-54
2022/08/16 01:08:19;;;;;;;;;;;28.10;93.30;;;;;;5065064;28;19909;-52
2022/08/16 01:10:45;;;;;;;;;;;28.10;93.30;;;;;;5052476;28;19947;-54
2022/08/16 01:13:14;;;;;;;;;;;28.10;93.30;;;;;;5062683;28;19913;-51
2022/08/16 01:15:43;;;;;;;;;;;28.10;93.30;;;;;;5063760;28;19917;-53
2022/08/16 01:18:12;;;;;;;;;;;28.10;93.30;;;;;;5065062;28;19908;-53
2022/08/16 01:20:41;;;;;;;;;;;28.10;93.30;;;;;;5065080;28;20157;-54
2022/08/16 01:23:12;;;;;;;;;;;28.10;93.40;;;;;;5064845;28;20204;-53
2022/08/16 01:25:41;;;;;;;;;;;28.10;93.40;;;;;;5064534;28;19951;-55
2022/08/16 01:28:10;;;;;;;;;;;28.10;93.40;;;;;;5063239;28;20233;-58
2022/08/16 01:30:38;;;;;;;;;;;28.10;93.40;;;;;;5064330;28;19909;-53
2022/08/16 01:33:05;;;;;;;;;;;28.10;93.40;;;;;;5064620;28;20184;-55
2022/08/16 01:35:31;;;;;;;;;;;28.10;93.40;;;;;;5064529;28;19909;-56
2022/08/16 01:38:12;;;;;;;;;;;28.10;93.30;;;;;;5064403;28;19909;-54
2022/08/16 01:40:39;;;;;;;;;;;28.10;93.30;;;;;;5064408;28;20019;-55
2022/08/16 01:43:07;;;;;;;;;;;28.10;93.30;;;;;;5064208;28;19915;-56
2022/08/16 01:45:34;;;;;;;;;;;28.10;93.30;;;;;;5064028;28;19939;-54
2022/08/16 01:48:02;;;;;;;;;;;28.10;93.20;;;;;;5064670;28;19911;-51
2022/08/16 01:50:28;;;;;;;;;;;28.10;93.20;;;;;;5063427;28;20219;-51
2022/08/16 01:52:54;;;;;;;;;;;28.10;93.10;;;;;;5063572;28;19915;-54
2022/08/16 01:55:21;;;;;;;;;;;28.00;93.10;;;;;;5064212;28;19979;-53
2022/08/16 01:57:48;;;;;;;;;;;28.10;93.10;;;;;;5064356;28;19904;-57
2022/08/16 02:00:15;;;;;;;;;;;28.10;93.00;;;;;;5064045;28;19963;-58
2022/08/16 02:02:41;;;;;;;;;;;28.00;92.90;;;;;;5064426;28;19980;-54
2022/08/16 02:05:08;;;;;;;;;;;28.00;92.90;;;;;;5064253;28;20011;-52
2022/08/16 02:07:34;;;;;;;;;;;28.10;92.80;;;;;;5064098;28;19956;-54
2022/08/16 02:10:02;;;;;;;;;;;28.00;92.70;;;;;;5063808;28;19951;-58
2022/08/16 02:12:29;;;;;;;;;;;28.00;92.70;;;;;;5064193;28;19931;-53
2022/08/16 02:14:56;;;;;;;;;;;28.00;92.70;;;;;;5063371;28;20198;-56
2022/08/16 02:17:22;;;;;;;;;;;28.00;92.60;;;;;;5064288;28;19908;-57
2022/08/16 02:19:50;;;;;;;;;;;28.00;92.60;;;;;;5064274;28;20178;-53
2022/08/16 02:22:20;;;;;;;;;;;28.00;92.60;;;;;;5063936;28;19940;-55
2022/08/16 02:24:46;;;;;;;;;;;28.00;92.60;;;;;;5063701;28;20200;-54
2022/08/16 02:27:12;;;;;;;;;;;28.00;92.60;;;;;;5062851;28;19929;-56
2022/08/16 02:29:39;;;;;;;;;;;28.00;92.50;;;;;;5063660;28;19913;-53
2022/08/16 02:32:05;;;;;;;;;;;28.00;92.60;;;;;;5062722;28;19913;-55
2022/08/16 02:34:31;;;;;;;;;;;27.90;92.60;;;;;;5064107;28;20201;-54
2022/08/16 02:36:57;;;;;;;;;;;27.90;92.60;;;;;;5063453;28;20078;-53
2022/08/16 02:39:24;;;;;;;;;;;27.90;92.60;;;;;;5062793;28;19913;-55
2022/08/16 02:41:51;;;;;;;;;;;27.90;92.80;;;;;;5064134;28;19982;-59
2022/08/16 02:44:18;;;;;;;;;;;27.90;92.60;;;;;;5064006;28;19913;-55
2022/08/16 02:46:44;;;;;;;;;;;27.90;92.50;;;;;;5063746;28;20211;-56
2022/08/16 02:49:11;;;;;;;;;;;27.90;92.60;;;;;;5064269;28;19913;-55
2022/08/16 02:51:38;;;;;;;;;;;27.90;92.60;;;;;;5063618;28;19909;-56
2022/08/16 02:54:06;;;;;;;;;;;27.80;92.60;;;;;;5064220;28;19916;-57
2022/08/16 02:56:32;;;;;;;;;;;27.80;92.50;;;;;;5058552;28;19916;-52
2022/08/16 02:58:58;;;;;;;;;;;27.80;92.70;;;;;;5064147;28;20173;-51
2022/08/16 03:01:26;;;;;;;;;;;27.80;92.50;;;;;;5063758;28;20175;-51
2022/08/16 03:03:55;;;;;;;;;;;27.80;92.50;;;;;;5063412;28;19951;-55
2022/08/16 03:06:22;;;;;;;;;;;27.80;92.60;;;;;;5063550;28;19936;-55
2022/08/16 03:08:49;;;;;;;;;;;27.80;92.50;;;;;;5063948;28;19908;-52
2022/08/16 03:11:16;;;;;;;;;;;27.80;92.60;;;;;;5063768;28;19951;-54
2022/08/16 03:13:43;;;;;;;;;;;27.80;92.60;;;;;;5063374;28;19917;-51
2022/08/16 03:16:11;;;;;;;;;;;27.80;92.70;;;;;;5063512;28;19916;-51
2022/08/16 03:18:38;;;;;;;;;;;27.80;92.70;;;;;;5063815;28;19909;-54
2022/08/16 03:21:05;;;;;;;;;;;27.80;92.70;;;;;;5063420;28;19913;-53
2022/08/16 03:23:32;;;;;;;;;;;27.80;92.80;;;;;;5063832;28;19916;-53
2022/08/16 03:25:58;;;;;;;;;;;27.80;92.80;;;;;;5063728;28;19920;-56
2022/08/16 03:28:24;;;;;;;;;;;27.80;92.80;;;;;;5065732;28;20092;-54
2022/08/16 03:30:51;;;;;;;;;;;27.70;92.80;;;;;;5067199;28;20216;-56
2022/08/16 03:33:17;;;;;;;;;;;27.70;92.80;;;;;;5067517;28;19909;-56
2022/08/16 03:35:43;;;;;;;;;;;27.70;92.80;;;;;;5066890;28;20100;-58
2022/08/16 03:38:11;;;;;;;;;;;27.70;92.90;;;;;;5067217;28;20058;-54
2022/08/16 03:40:37;;;;;;;;;;;27.70;92.90;;;;;;5066881;28;19916;-55
2022/08/16 03:43:05;;;;;;;;;;;27.70;92.90;;;;;;5066622;28;20107;-51
2022/08/16 03:45:32;;;;;;;;;;;27.70;92.90;;;;;;5066683;28;19919;-53
2022/08/16 03:47:59;;;;;;;;;;;27.70;92.90;;;;;;5066950;28;19905;-57
2022/08/16 03:50:25;;;;;;;;;;;27.70;93.00;;;;;;5066811;28;19920;-57
2022/08/16 03:52:51;;;;;;;;;;;27.60;93.00;;;;;;5066682;28;20203;-54
2022/08/16 03:55:17;;;;;;;;;;;27.60;93.10;;;;;;5066744;28;19988;-53
2022/08/16 03:57:44;;;;;;;;;;;27.60;93.10;;;;;;5066331;28;19923;-53
2022/08/16 04:00:13;;;;;;;;;;;27.60;93.40;;;;;;5066335;28;19909;-54
2022/08/16 04:02:40;;;;;;;;;;;27.60;93.20;;;;;;5066573;28;19908;-56
2022/08/16 04:05:07;;;;;;;;;;;27.60;93.20;;;;;;5066217;28;19932;-55
2022/08/16 04:07:33;;;;;;;;;;;27.50;93.20;;;;;;5066399;28;19912;-56
2022/08/16 04:09:59;;;;;;;;;;;27.60;93.20;;;;;;5066299;28;19986;-53
2022/08/16 04:12:25;;;;;;;;;;;27.50;93.20;;;;;;5066374;28;19905;-57
2022/08/16 04:14:51;;;;;;;;;;;27.50;93.20;;;;;;5066336;28;19921;-54
2022/08/16 04:17:19;;;;;;;;;;;27.50;93.10;;;;;;5066148;28;19909;-55
2022/08/16 04:19:45;;;;;;;;;;;27.50;93.00;;;;;;5066196;28;19912;-52
2022/08/16 04:22:11;;;;;;;;;;;27.40;93.00;;;;;;5065894;28;19909;-53
2022/08/16 04:24:37;;;;;;;;;;;27.50;93.10;;;;;;5059555;28;19963;-54
2022/08/16 04:27:04;;;;;;;;;;;27.50;93.20;;;;;;5066008;28;19908;-53
2022/08/16 04:29:30;;;;;;;;;;;27.50;93.30;;;;;;5065760;28;19913;-51
2022/08/16 04:31:56;;;;;;;;;;;27.40;93.30;;;;;;5066012;28;19909;-55
2022/08/16 04:34:23;;;;;;;;;;;27.40;93.30;;;;;;5065836;28;20189;-54
2022/08/16 04:36:49;;;;;;;;;;;27.40;93.30;;;;;;5065812;28;19909;-55
2022/08/16 04:39:15;;;;;;;;;;;27.40;93.40;;;;;;5066175;28;19916;-56
2022/08/16 04:41:42;;;;;;;;;;;27.40;93.30;;;;;;5065981;28;19916;-56
2022/08/16 04:44:08;;;;;;;;;;;27.30;93.40;;;;;;5066001;28;19962;-55
2022/08/16 04:46:34;;;;;;;;;;;27.40;93.50;;;;;;5065519;28;20201;-54
2022/08/16 04:49:00;;;;;;;;;;;27.30;93.50;;;;;;5066037;28;19911;-53
2022/08/16 04:51:26;;;;;;;;;;;27.30;93.50;;;;;;5065477;28;20000;-55
2022/08/16 04:53:52;;;;;;;;;;;27.30;93.50;;;;;;5065762;28;19951;-53
2022/08/16 04:56:19;;;;;;;;;;;27.30;93.60;;;;;;5065571;28;20147;-54
2022/08/16 04:58:45;;;;;;;;;;;27.30;93.60;;;;;;5065765;28;19909;-52
2022/08/16 05:01:11;;;;;;;;;;;27.30;93.70;;;;;;5065263;28;20168;-51
2022/08/16 05:03:38;;;;;;;;;;;27.30;93.70;;;;;;5064632;28;19913;-52
2022/08/16 05:06:04;;;;;;;;;;;27.20;93.80;;;;;;5065255;28;19913;-54
2022/08/16 05:08:30;;;;;;;;;;;27.30;93.80;;;;;;5065376;28;19904;-54
2022/08/16 05:10:58;;;;;;;;;;;27.20;93.80;;;;;;5065409;28;19912;-53
2022/08/16 05:13:24;;;;;;;;;;;27.20;93.80;;;;;;5064874;28;20240;-52
2022/08/16 05:15:50;;;;;;;;;;;27.20;93.80;;;;;;5064944;28;19915;-52
2022/08/16 05:18:16;;;;;;;;;;;27.20;93.80;;;;;;5065316;28;19919;-52
2022/08/16 05:20:42;;;;;;;;;;;27.20;93.80;;;;;;5065000;28;19951;-52
2022/08/16 05:23:08;;;;;;;;;;;27.10;93.80;;;;;;5065033;28;19905;-55
2022/08/16 05:25:35;;;;;;;;;;;27.20;93.90;;;;;;5065167;28;20185;-53
2022/08/16 05:28:01;;;;;;;;;;;27.20;93.90;;;;;;5065342;28;19908;-55
2022/08/16 05:30:27;;;;;;;;;;;27.10;93.80;;;;;;5064746;28;20015;-54
2022/08/16 05:32:54;;;;;;;;;;;27.10;93.80;;;;;;5065091;28;19912;-53
2022/08/16 05:35:20;;;;;;;;;;;27.10;93.80;;;;;;5065133;28;19913;-54
2022/08/16 05:37:46;;;;;;;;;;;27.10;93.90;;;;;;5064911;28;19909;-57
2022/08/16 05:40:14;;;;;;;;;;;27.10;94.00;;;;;;5064628;28;19925;-54
2022/08/16 05:42:40;;;;;;;;;;;27.10;94.00;;;;;;5063766;28;19908;-52
2022/08/16 05:45:06;;;;;;;;;;;27.10;94.10;;;;;;5064682;28;19913;-52
2022/08/16 05:47:33;;;;;;;;;;;27.10;94.20;;;;;;5064750;28;19916;-54
2022/08/16 05:49:59;;;;;;;;;;;27.00;94.20;;;;;;5064236;28;20132;-51
2022/08/16 05:52:25;;;;;;;;;;;27.10;94.20;;;;;;5064673;28;19951;-53
2022/08/16 05:54:51;;;;;;;;;;;27.10;94.20;;;;;;5064571;28;19982;-55
2022/08/16 05:57:18;;;;;;;;;;;27.10;94.20;;;;;;5064347;28;19919;-57
2022/08/16 05:59:47;;;;;;;;;;;27.10;94.50;;;;;;5064375;28;20104;-57
2022/08/16 06:02:13;;;;;;;;;;;27.10;94.20;;;;;;5064321;28;19936;-53
2022/08/16 06:04:39;;;;;;;;;;;27.10;94.30;;;;;;5064239;28;19917;-53
2022/08/16 06:07:06;;;;;;;;;;;27.10;94.30;;;;;;5064364;28;19909;-52
2022/08/16 06:09:32;;;;;;;;;;;27.00;94.20;;;;;;5064107;28;19909;-58
2022/08/16 06:12:01;;;;;;;;;;;27.00;94.20;;;;;;5064281;28;20224;-54
2022/08/16 06:14:28;;;;;;;;;;;27.00;94.20;;;;;;5064142;28;19959;-55
2022/08/16 06:16:55;;;;;;;;;;;27.10;94.10;;;;;;5064046;28;19947;-53
2022/08/16 06:19:21;;;;;;;;;;;27.00;94.10;;;;;;5064604;28;19987;-55
2022/08/16 06:21:47;;;;;;;;;;;27.00;94.10;;;;;;5064182;28;20101;-52
2022/08/16 06:24:13;;;;;;;;;;;27.00;94.10;;;;;;5063673;28;19919;-58
2022/08/16 06:26:40;;;;;;;;;;;27.00;94.10;;;;;;5062504;28;19921;-55
2022/08/16 06:29:07;;;;;;;;;;;27.00;94.10;;;;;;5064536;28;19913;-52
2022/08/16 06:31:33;;;;;;;;;;;26.90;94.00;;;;;;5064204;28;19934;-52
2022/08/16 06:33:59;;;;;;;;;;;26.90;94.00;;;;;;5064542;28;19908;-52
2022/08/16 06:36:25;;;;;;;;;;;26.90;94.00;;;;;;5064073;28;19975;-51
2022/08/16 06:38:51;;;;;;;;;;;26.90;93.90;;;;;;5064508;28;19944;-54
2022/08/16 06:41:17;;;;;;;;;;;26.90;93.90;;;;;;5063981;28;20117;-52
2022/08/16 06:43:43;;;;;;;;;;;26.90;94.00;;;;;;5064245;28;19932;-53
2022/08/16 06:46:21;;;;;;;;;;;26.90;94.00;;;;;;5063988;28;19917;-52
2022/08/16 06:48:48;;;;;;;;;;;26.90;94.00;;;;;;5064287;28;19909;-55
2022/08/16 06:51:14;;;;;;;;;;;26.90;94.00;;;;;;5063857;28;20007;-53
2022/08/16 06:53:40;;;;;;;;;;;26.90;94.10;;;;;;5064340;28;19962;-53
2022/08/16 06:56:06;;;;;;;;;;;26.90;94.00;;;;;;5063920;28;20246;-51
2022/08/16 06:58:33;;;;;;;;;;;26.90;94.00;;;;;;5064027;28;19916;-54
2022/08/16 07:01:02;;;;;;;;;;;26.80;94.10;;;;;;5063958;28;19909;-55
2022/08/16 07:03:29;;;;;;;;;;;26.80;94.00;;;;;;5066325;28;19951;-52
2022/08/16 07:05:55;;;;;;;;;;;26.80;94.00;;;;;;5067577;28;19936;-51
2022/08/16 07:08:22;;;;;;;;;;;26.80;94.00;;;;;;5067857;28;20173;-53
2022/08/16 07:10:49;;;;;;;;;;;26.80;94.00;;;;;;5067484;28;19948;-54
2022/08/16 07:13:15;;;;;;;;;;;26.80;94.00;;;;;;5067450;28;19916;-52
2022/08/16 07:15:42;;;;;;;;;;;26.80;94.00;;;;;;5067827;28;19917;-54
2022/08/16 07:18:09;;;;;;;;;;;26.80;94.00;;;;;;5067586;28;19946;-56
2022/08/16 07:20:36;;;;;;;;;;;26.80;94.10;;;;;;5067366;28;20104;-51
2022/08/16 07:23:03;;;;;;;;;;;26.80;94.10;;;;;;5067667;28;19916;-52
2022/08/16 07:25:29;;;;;;;;;;;26.80;94.10;;;;;;5067275;28;19912;-52
2022/08/16 07:27:55;;;;;;;;;;;26.80;94.10;;;;;;5067638;28;19909;-52
2022/08/16 07:30:22;;;;;;;;;;;26.80;94.10;;;;;;5067257;28;19916;-53
2022/08/16 07:32:49;;;;;;;;;;;26.80;94.10;;;;;;5067355;28;19905;-56
2022/08/16 07:35:16;;;;;;;;;;;26.80;94.00;;;;;;5067030;28;19999;-52
2022/08/16 07:37:42;;;;;;;;;;;26.80;94.00;;;;;;5067314;28;19912;-52
2022/08/16 07:40:08;;;;;;;;;;;26.80;94.00;;;;;;5066831;28;20104;-53
2022/08/16 07:42:34;;;;;;;;;;;26.70;94.00;;;;;;5067199;28;19905;-52
2022/08/16 07:45:01;;;;;;;;;;;26.70;94.00;;;;;;5066982;28;19921;-54
2022/08/16 07:47:27;;;;;;;;;;;26.70;94.00;;;;;;5066851;28;19908;-51
2022/08/16 07:49:54;;;;;;;;;;;26.70;94.10;;;;;;5067055;28;19909;-55
2022/08/16 07:52:20;;;;;;;;;;;26.70;94.10;;;;;;5066615;28;19931;-57
2022/08/16 07:54:46;;;;;;;;;;;26.70;94.10;;;;;;5066830;28;19947;-52
2022/08/16 07:57:12;;;;;;;;;;;26.70;94.00;;;;;;5066700;28;19972;-53
2022/08/16 07:59:38;;;;;;;;;;;26.70;94.10;;;;;;5066645;28;20203;-52
2022/08/16 08:02:05;;;;;;;;;;;26.60;94.10;;;;;;5066449;28;19905;-55
2022/08/16 08:04:33;;;;;;;;;;;26.60;94.10;;;;;;5066702;28;19917;-52
2022/08/16 08:07:00;;;;;;;;;;;26.60;94.10;;;;;;5066412;28;20116;-54
2022/08/16 08:09:26;;;;;;;;;;;26.60;94.10;;;;;;5066347;28;19944;-52
2022/08/16 08:11:52;;;;;;;;;;;26.60;94.10;;;;;;5066363;28;20197;-52
2022/08/16 08:14:18;;;;;;;;;;;26.60;94.10;;;;;;5065901;28;19924;-53
2022/08/16 08:16:44;;;;;;;;;;;26.60;94.00;;;;;;5066304;28;19935;-58
2022/08/16 08:19:11;;;;;;;;;;;26.60;94.00;;;;;;5066640;28;19905;-52
2022/08/16 08:21:39;;;;;;;;;;;26.60;94.10;;;;;;5066274;28;19920;-58
2022/08/16 08:24:06;;;;;;;;;;;26.60;94.10;;;;;;5066518;28;19912;-56
2022/08/16 08:26:33;;;;;;;;;;;26.60;94.10;;;;;;5066177;28;19915;-56
2022/08/16 08:28:59;;;;;;;;;;;26.60;94.20;;;;;;5066670;28;19908;-56
2022/08/16 08:31:26;;;;;;;;;;;26.50;94.10;;;;;;5066077;28;19916;-51
2022/08/16 08:33:55;;;;;;;;;;;26.60;94.20;;;;;;5066252;28;19978;-54
2022/08/16 08:36:26;;;;;;;;;;;26.50;94.20;;;;;;5065984;28;19920;-58
2022/08/16 08:38:52;;;;;;;;;;;26.60;94.20;;;;;;5066354;28;19905;-52
2022/08/16 08:41:18;;;;;;;;;;;26.60;94.30;;;;;;5065680;28;19920;-52
2022/08/16 08:43:45;;;;;;;;;;;26.60;94.30;;;;;;5065625;28;19912;-56
2022/08/16 08:46:11;;;;;;;;;;;26.60;94.30;;;;;;5065730;28;19913;-52
2022/08/16 08:48:38;;;;;;;;;;;26.50;94.30;;;;;;5065833;28;19988;-58
2022/08/16 08:51:08;;;;;;;;;;;26.50;94.30;;;;;;5065621;28;20243;-52
2022/08/16 08:53:34;;;;;;;;;;;26.50;94.30;;;;;;5066044;28;19931;-56
2022/08/16 08:56:01;;;;;;;;;;;26.50;94.30;;;;;;5065617;28;20193;-52
2022/08/16 08:58:28;;;;;;;;;;;26.50;94.20;;;;;;5065730;28;19912;-56
2022/08/16 09:00:55;;;;;;;;;;;26.50;94.20;;;;;;5065344;28;19984;-52
2022/08/16 09:03:21;;;;;;;;;;;26.50;94.20;;;;;;5065370;28;19921;-54
2022/08/16 09:05:50;;;;;;;;;;;26.50;94.20;;;;;;5065391;28;19924;-52
2022/08/16 09:08:16;;;;;;;;;;;26.50;94.20;;;;;;5065491;28;19916;-51
2022/08/16 09:10:43;;;;;;;;;;;26.50;94.30;;;;;;5065298;28;20101;-52
2022/08/16 09:13:09;;;;;;;;;;;26.50;94.30;;;;;;5065245;28;19916;-51
2022/08/16 09:15:36;;;;;;;;;;;26.50;94.30;;;;;;5065383;28;19980;-51
2022/08/16 09:18:02;;;;;;;;;;;26.50;94.30;;;;;;5065263;28;19950;-52
2022/08/16 09:20:29;;;;;;;;;;;26.40;94.20;;;;;;5065056;28;19916;-56
2022/08/16 09:22:56;;;;;;;;;;;26.40;94.20;;;;;;5065163;28;19909;-51
2022/08/16 09:25:22;;;;;;;;;;;26.50;94.30;;;;;;5064089;28;20094;-51
2022/08/16 09:27:49;;;;;;;;;;;26.40;94.20;;;;;;5064772;28;19908;-54
2022/08/16 09:30:16;;;;;;;;;;;26.40;94.30;;;;;;5064842;28;19917;-52
2022/08/16 09:32:43;;;;;;;;;;;26.40;94.30;;;;;;5065014;28;20181;-52
2022/08/16 09:35:09;;;;;;;;;;;26.50;94.30;;;;;;5065174;28;19920;-52
2022/08/16 09:37:35;;;;;;;;;;;26.40;94.30;;;;;;5064911;28;20102;-58
2022/08/16 09:40:03;;;;;;;;;;;26.40;94.30;;;;;;5064697;28;20143;-54
2022/08/16 09:42:29;;;;;;;;;;;26.40;94.40;;;;;;5064918;28;19931;-52
2022/08/16 09:44:56;;;;;;;;;;;26.40;94.40;;;;;;5064534;28;19913;-56
2022/08/16 09:47:22;;;;;;;;;;;26.40;94.40;;;;;;5064595;28;19909;-57
2022/08/16 09:49:49;;;;;;;;;;;26.40;94.40;;;;;;5064809;28;19952;-54
2022/08/16 09:52:15;;;;;;;;;;;26.40;94.30;;;;;;5064663;28;19931;-54
2022/08/16 09:54:41;;;;;;;;;;;26.40;94.30;;;;;;5064384;28;19920;-53
2022/08/16 09:57:08;;;;;;;;;;;26.40;94.30;;;;;;5064397;28;19950;-54
2022/08/16 09:59:34;;;;;;;;;;;26.40;94.30;;;;;;5064591;28;19913;-52
2022/08/16 10:02:00;;;;;;;;;;;26.40;94.30;;;;;;5064181;28;19908;-56
2022/08/16 10:04:26;;;;;;;;;;;26.40;94.30;;;;;;5064201;28;19924;-53
2022/08/16 10:06:55;;;;;;;;;;;26.40;94.30;;;;;;5064945;28;19908;-53
2022/08/16 10:09:22;;;;;;;;;;;26.40;94.40;;;;;;5064733;28;20215;-54
2022/08/16 10:14:33;;;;;;;;;;;26.40;94.40;;;;;;5064233;28;19928;-55
2022/08/16 10:17:01;;;;;;;;;;;26.40;94.50;;;;;;5064164;28;19940;-52
2022/08/16 10:19:27;;;;;;;;;;;26.40;94.50;;;;;;5064375;28;19955;-56
2022/08/16 10:21:54;;;;;;;;;;;26.40;94.40;;;;;;5064049;28;19936;-57
2022/08/16 10:24:21;;;;;;;;;;;26.30;94.50;;;;;;5064086;28;19975;-52
2022/08/16 10:26:47;;;;;;;;;;;26.30;94.50;;;;;;5064313;28;19909;-53
2022/08/16 10:29:13;;;;;;;;;;;26.30;94.60;;;;;;5064642;28;19909;-55
2022/08/16 10:31:39;;;;;;;;;;;26.30;94.60;;;;;;5063993;28;19996;-54
2022/08/16 10:34:06;;;;;;;;;;;26.30;94.60;;;;;;5064612;28;19909;-52
2022/08/16 10:36:32;;;;;;;;;;;26.30;94.60;;;;;;5065099;28;19913;-52
2022/08/16 10:38:58;;;;;;;;;;;26.30;94.70;;;;;;5068379;28;19905;-54
2022/08/16 10:41:24;;;;;;;;;;;26.30;94.70;;;;;;5067471;28;20051;-52
2022/08/16 10:43:51;;;;;;;;;;;26.30;94.80;;;;;;5068416;28;19951;-52
2022/08/16 10:46:17;;;;;;;;;;;26.30;94.80;;;;;;5067778;28;19913;-52
2022/08/16 10:48:44;;;;;;;;;;;26.30;94.80;;;;;;5068347;28;19947;-54
2022/08/16 10:51:10;;;;;;;;;;;26.30;94.80;;;;;;5067858;28;19908;-52
2022/08/16 10:53:37;;;;;;;;;;;26.30;94.80;;;;;;5068072;28;19932;-54
2022/08/16 10:56:10;;;;;;;;;;;26.30;94.90;;;;;;5067831;28;19920;-52
2022/08/16 10:58:38;;;;;;;;;;;26.30;94.90;;;;;;5068108;28;19909;-52
2022/08/16 11:01:07;;;;;;;;;;;26.30;94.90;;;;;;5067473;28;19920;-52
2022/08/16 11:03:33;;;;;;;;;;;26.30;94.90;;;;;;5067824;28;19913;-54
2022/08/16 11:06:00;;;;;;;;;;;26.30;94.90;;;;;;5067676;28;19943;-53
2022/08/16 11:08:26;;;;;;;;;;;26.30;94.90;;;;;;5067628;28;19951;-52
2022/08/16 11:10:52;;;;;;;;;;;26.30;95.00;;;;;;5067525;28;19920;-52
2022/08/16 11:13:24;;;;;;;;;;;26.30;95.00;;;;;;5067106;28;19917;-54
2022/08/16 11:15:51;;;;;;;;;;;26.30;95.00;;;;;;5067241;28;19950;-53
2022/08/16 11:18:18;;;;;;;;;;;26.30;95.00;;;;;;5067593;28;19979;-52
2022/08/16 11:20:45;;;;;;;;;;;26.30;94.90;;;;;;5067221;28;19920;-51
2022/08/16 11:23:11;;;;;;;;;;;26.30;95.00;;;;;;5067162;28;19976;-53
2022/08/16 11:25:38;;;;;;;;;;;26.30;94.90;;;;;;5067340;28;20223;-53
2022/08/16 11:28:05;;;;;;;;;;;26.30;94.90;;;;;;5067392;28;20236;-56
2022/08/16 11:30:33;;;;;;;;;;;26.30;94.90;;;;;;5066860;28;19909;-51
2022/08/16 11:33:02;;;;;;;;;;;26.30;94.90;;;;;;5067438;28;19948;-52
2022/08/16 11:35:29;;;;;;;;;;;26.30;94.80;;;;;;5067036;28;19909;-52
2022/08/16 11:37:57;;;;;;;;;;;26.30;94.80;;;;;;5067203;28;19955;-54
2022/08/16 11:40:25;;;;;;;;;;;26.30;94.80;;;;;;5065794;28;19984;-55
2022/08/16 11:42:51;;;;;;;;;;;26.30;94.80;;;;;;5065387;28;19995;-52
2022/08/16 11:45:17;;;;;;;;;;;26.30;94.80;;;;;;5065148;28;20260;-53
2022/08/16 11:47:43;;;;;;;;;;;26.30;94.80;;;;;;5064670;28;19951;-53
2022/08/16 11:50:09;;;;;;;;;;;26.30;94.90;;;;;;5064852;28;19913;-53
2022/08/16 11:52:37;;;;;;;;;;;26.30;94.90;;;;;;5065029;28;19909;-52
2022/08/16 11:55:04;;;;;;;;;;;26.30;94.80;;;;;;5065711;28;19920;-52
2022/08/16 11:57:31;;;;;;;;;;;26.30;94.80;;;;;;5066860;28;19927;-51
2022/08/16 11:59:57;;;;;;;;;;;26.40;94.90;;;;;;5065706;28;19919;-52
2022/08/16 12:02:24;;;;;;;;;;;26.40;94.90;;;;;;5066670;28;20115;-50
2022/08/16 12:04:50;;;;;;;;;;;26.40;94.80;;;;;;5066453;28;20120;-52
2022/08/16 12:07:16;;;;;;;;;;;26.40;94.80;;;;;;5066324;28;19988;-53
2022/08/16 12:09:43;;;;;;;;;;;26.40;94.80;;;;;;5066606;28;19952;-53
2022/08/16 12:12:10;;;;;;;;;;;26.50;94.80;;;;;;5066342;28;19980;-52
2022/08/16 12:14:36;;;;;;;;;;;26.50;94.80;;;;;;5066597;28;19920;-54
2022/08/16 12:17:03;;;;;;;;;;;26.40;94.80;;;;;;5066334;28;19909;-53
2022/08/16 12:19:30;;;;;;;;;;;26.50;94.80;;;;;;5066666;28;19920;-53
2022/08/16 12:21:56;;;;;;;;;;;26.50;94.70;;;;;;5066094;28;19909;-54
2022/08/16 12:24:22;;;;;;;;;;;26.50;94.70;;;;;;5066089;28;19916;-51
2022/08/16 12:26:49;;;;;;;;;;;26.60;94.70;;;;;;5066107;28;19935;-51
2022/08/16 12:29:15;;;;;;;;;;;26.60;94.70;;;;;;5064916;28;19909;-54
2022/08/16 12:31:41;;;;;;;;;;;26.70;94.70;;;;;;5065788;28;20208;-52
2022/08/16 12:34:08;;;;;;;;;;;26.70;94.60;;;;;;5066340;28;19904;-51
2022/08/16 12:36:34;;;;;;;;;;;26.70;94.60;;;;;;5065680;28;19913;-53
2022/08/16 12:39:03;;;;;;;;;;;26.80;94.50;;;;;;5066132;28;19912;-52
2022/08/16 12:41:31;;;;;;;;;;;26.80;94.50;;;;;;5065785;28;20108;-52
2022/08/16 12:43:57;;;;;;;;;;;26.90;94.50;;;;;;5065397;28;19913;-54
2022/08/16 12:46:24;;;;;;;;;;;26.90;94.50;;;;;;5065560;28;19909;-52
2022/08/16 12:48:59;;;;;;;;;;;27.00;94.40;;;;;;5065940;28;19980;-52
2022/08/16 12:51:26;;;;;;;;;;;27.00;94.40;;;;;;5065654;28;19909;-57
2022/08/16 12:53:54;;;;;;;;;;;27.00;94.40;;;;;;5065721;28;19909;-51
2022/08/16 12:56:24;;;;;;;;;;;27.00;94.30;;;;;;5065652;28;20077;-54
2022/08/16 12:58:51;;;;;;;;;;;27.10;94.30;;;;;;5065702;28;19915;-53
2022/08/16 13:01:18;;;;;;;;;;;27.20;94.30;;;;;;5064779;28;19921;-52
2022/08/16 13:03:46;;;;;;;;;;;27.20;94.20;;;;;;5065759;28;19913;-54
2022/08/16 13:06:12;;;;;;;;;;;27.20;94.20;;;;;;5065130;28;20188;-53
2022/08/16 13:08:38;;;;;;;;;;;27.20;94.20;;;;;;5065705;28;19932;-53
2022/08/16 13:11:06;;;;;;;;;;;27.30;94.20;;;;;;5065713;28;19913;-52
2022/08/16 13:13:33;;;;;;;;;;;27.30;94.10;;;;;;5065386;28;19923;-51
2022/08/16 13:16:00;;;;;;;;;;;27.30;94.10;;;;;;5065004;28;19975;-54
2022/08/16 13:18:28;;;;;;;;;;;27.30;94.00;;;;;;5065768;28;19908;-52
2022/08/16 13:20:55;;;;;;;;;;;27.30;94.00;;;;;;5065236;28;19909;-52
2022/08/16 13:23:22;;;;;;;;;;;27.30;93.90;;;;;;5065722;28;20096;-52
2022/08/16 13:25:49;;;;;;;;;;;27.30;93.80;;;;;;5065070;28;19954;-52
2022/08/16 13:28:15;;;;;;;;;;;27.30;93.80;;;;;;5065229;28;19968;-52
2022/08/16 13:30:43;;;;;;;;;;;27.30;93.70;;;;;;5064867;28;19940;-53
2022/08/16 13:33:12;;;;;;;;;;;27.30;93.60;;;;;;5065329;28;19905;-53
2022/08/16 13:35:38;;;;;;;;;;;27.30;93.60;;;;;;5064787;28;20206;-52
2022/08/16 13:38:04;;;;;;;;;;;27.30;93.60;;;;;;5065228;28;19916;-53
2022/08/16 13:40:30;;;;;;;;;;;27.30;93.60;;;;;;5065019;28;19913;-51
2022/08/16 13:42:56;;;;;;;;;;;27.30;93.50;;;;;;5064809;28;19916;-51
2022/08/16 13:45:25;;;;;;;;;;;27.30;93.50;;;;;;5064462;28;19988;-53
2022/08/16 13:47:52;;;;;;;;;;;27.30;93.50;;;;;;5064834;28;19952;-52
2022/08/16 13:50:18;;;;;;;;;;;27.30;93.20;;;;;;5064870;28;19908;-52
2022/08/16 13:52:46;;;;;;;;;;;27.30;93.20;;;;;;5064517;28;20181;-54
2022/08/16 13:55:12;;;;;;;;;;;27.30;93.20;;;;;;5064440;28;19913;-53
2022/08/16 13:57:38;;;;;;;;;;;27.30;93.20;;;;;;5064677;28;20004;-52
2022/08/16 14:00:08;;;;;;;;;;;27.30;93.20;;;;;;5064325;28;19913;-51
2022/08/16 14:02:35;;;;;;;;;;;27.30;93.20;;;;;;5064647;28;19908;-52
2022/08/16 14:05:01;;;;;;;;;;;27.30;93.30;;;;;;5064328;28;19996;-53
2022/08/16 14:07:27;;;;;;;;;;;27.30;93.30;;;;;;5064569;28;20227;-53
2022/08/16 14:09:53;;;;;;;;;;;27.30;93.20;;;;;;5058234;28;19912;-52
2022/08/16 14:12:22;;;;;;;;;;;27.30;93.10;;;;;;5062744;28;19915;-52
2022/08/16 14:14:50;;;;;;;;;;;27.40;93.10;;;;;;5058642;28;20105;-51
2022/08/16 14:17:16;;;;;;;;;;;27.40;93.00;;;;;;5064159;28;20082;-51